Time;durP1;ratioP1;P1;durP2;ratioP2;P2;SDS_P1;SDS_P2;PMS_P1;PMS_P2;Temp;Humidity;BMP_temperature;BMP_pressure;BME280_temperature;BME280_humidity;BME280_pressure;Samples;Min_cycle;Max_cycle;Signal;HPM_P1;HPM_P2
2021/05/08 00:04:58;;;;;;;13.53;7.60;;;;;;;4.07;71.52;99059.58;4510140;77;21129;-85
2021/05/08 00:11:00;;;;;;;20.32;10.00;;;;;;;4.02;71.65;99063.86;4510786;77;21595;-86
2021/05/08 00:17:02;;;;;;;18.65;8.20;;;;;;;4.06;72.04;99076.97;4530893;77;21144;-85
2021/05/08 00:23:04;;;;;;;13.32;6.75;;;;;;;4.13;72.19;99083.22;4607258;76;21499;-86
2021/05/08 00:29:06;;;;;;;12.30;7.15;;;;;;;4.16;72.28;99086.62;4529070;77;21293;-86
2021/05/08 00:35:08;;;;;;;12.28;7.67;;;;;;;4.15;71.75;99091.23;4526245;77;21157;-85
2021/05/08 00:41:10;;;;;;;12.50;6.87;;;;;;;4.18;72.32;99100.05;4533740;77;21177;-86
2021/05/08 00:47:14;;;;;;;16.50;8.65;;;;;;;4.26;72.10;99099.78;4603280;76;21247;-85
2021/05/08 00:53:16;;;;;;;18.27;8.95;;;;;;;4.24;72.38;99107.44;4503310;77;21750;-86
2021/05/08 00:59:20;;;;;;;14.40;8.33;;;;;;;4.30;72.45;99104.76;4609519;76;21173;-85
2021/05/08 01:05:22;;;;;;;14.25;8.18;;;;;;;4.31;72.50;99108.49;4527385;77;21125;-86
2021/05/08 01:11:24;;;;;;;15.50;8.18;;;;;;;4.39;72.70;99117.12;4599695;76;21175;-86
2021/05/08 01:17:28;;;;;;;12.85;7.37;;;;;;;4.49;73.06;99121.34;4536089;76;21160;-85
2021/05/08 01:23:30;;;;;;;15.20;8.20;;;;;;;4.59;72.79;99124.44;4574046;76;21167;-86
2021/05/08 01:29:32;;;;;;;14.45;8.08;;;;;;;4.68;72.72;99121.66;4592492;76;21193;-85
2021/05/08 01:35:35;;;;;;;13.32;8.13;;;;;;;4.73;72.75;99124.95;4595236;76;21141;-86
2021/05/08 01:41:38;;;;;;;15.70;7.85;;;;;;;4.75;72.65;99138.98;4542700;76;21160;-86
2021/05/08 01:47:40;;;;;;;14.65;7.62;;;;;;;4.78;72.69;99147.80;4544781;76;21125;-85
2021/05/08 01:53:42;;;;;;;12.28;7.20;;;;;;;4.79;72.61;99156.16;4511283;78;21106;-86
2021/05/08 01:59:44;;;;;;;12.65;7.65;;;;;;;4.84;72.79;99163.30;4514295;77;21721;-86
2021/05/08 02:05:47;;;;;;;12.60;7.90;;;;;;;4.93;72.83;99166.74;4538389;77;21157;-86
2021/05/08 02:12:00;;;;;;;10.50;6.67;;;;;;;5.07;73.31;99164.53;4380648;79;23377;-86
2021/05/08 02:18:04;;;;;;;11.15;6.97;;;;;;;5.05;73.27;99165.97;4325355;81;21163;-86
2021/05/08 02:24:07;;;;;;;10.50;5.87;;;;;;;5.01;73.11;99169.94;4333781;81;21673;-86
2021/05/08 02:30:12;;;;;;;14.53;7.03;;;;;;;5.01;73.26;99169.94;4329295;81;21307;-86
2021/05/08 02:36:14;;;;;;;10.03;6.25;;;;;;;5.01;73.29;99178.08;4339324;81;21173;-86
2021/05/08 02:42:16;;;;;;;11.43;5.80;;;;;;;4.98;73.15;99182.79;4318762;81;21138;-86
2021/05/08 02:48:18;;;;;;;10.93;5.28;;;;;;;4.98;72.86;99190.16;4328521;81;21602;-86
2021/05/08 02:54:21;;;;;;;11.70;6.28;;;;;;;4.97;73.24;99207.54;4326738;81;21132;-86
2021/05/08 03:00:23;;;;;;;9.15;5.75;;;;;;;5.02;73.03;99215.48;4333909;81;21219;-86
2021/05/08 03:06:25;;;;;;;10.65;6.78;;;;;;;5.00;73.04;99217.17;4325704;81;21629;-86
2021/05/08 03:12:27;;;;;;;11.05;6.58;;;;;;;4.90;72.87;99222.22;4337388;81;21166;-86
2021/05/08 03:18:29;;;;;;;10.48;6.60;;;;;;;4.85;73.06;99228.64;4344677;81;21154;-86
2021/05/08 03:24:32;;;;;;;12.35;6.78;;;;;;;4.91;73.06;99232.73;4350240;81;21150;-86
2021/05/08 03:30:34;;;;;;;12.15;6.60;;;;;;;4.95;73.29;99234.23;4338884;81;21349;-86
2021/05/08 03:36:37;;;;;;;11.73;6.70;;;;;;;4.99;73.38;99251.42;4348048;81;21146;-86
2021/05/08 03:42:39;;;;;;;10.98;7.22;;;;;;;5.00;73.43;99253.80;4336144;81;21897;-86
2021/05/08 03:48:40;;;;;;;12.80;6.60;;;;;;;5.09;73.53;99272.73;4334232;80;21178;-86
2021/05/08 03:54:42;;;;;;;12.25;7.20;;;;;;;5.20;73.42;99282.83;4325449;80;21179;-86
2021/05/08 04:00:44;;;;;;;13.22;8.00;;;;;;;5.36;73.21;99281.66;4332429;81;21595;-87
2021/05/08 04:06:45;;;;;;;10.82;6.95;;;;;;;5.47;73.08;99283.63;4340447;81;21354;-86
2021/05/08 04:12:47;;;;;;;14.83;8.55;;;;;;;5.53;73.04;99293.73;4329708;82;21156;-86
2021/05/08 04:18:48;;;;;;;10.08;6.78;;;;;;;5.59;73.00;99303.26;4323218;82;21367;-86
2021/05/08 04:24:50;;;;;;;13.15;7.53;;;;;;;5.68;72.93;99306.13;4325151;82;21809;-86
2021/05/08 04:30:51;;;;;;;11.33;6.33;;;;;;;5.74;73.52;99314.84;4328734;81;21146;-86
2021/05/08 04:36:53;;;;;;;11.95;7.28;;;;;;;5.79;73.02;99315.44;4340438;82;21204;-86
2021/05/08 04:42:54;;;;;;;10.05;5.40;;;;;;;5.81;73.22;99321.30;4327881;82;21329;-86
2021/05/08 04:48:57;;;;;;;10.95;6.20;;;;;;;5.84;72.73;99328.05;4324825;82;21371;-87
2021/05/08 04:55:00;;;;;;;9.28;5.95;;;;;;;5.87;72.70;99336.88;4323261;82;21155;-86
2021/05/08 05:01:01;;;;;;;14.33;8.00;;;;;;;5.89;72.44;99341.39;4330099;82;21141;-86
2021/05/08 05:07:03;;;;;;;11.03;6.50;;;;;;;5.98;72.52;99352.98;4336210;81;21329;-86
2021/05/08 05:13:04;;;;;;;11.30;7.15;;;;;;;6.03;72.32;99350.83;4164671;84;21190;-86
2021/05/08 05:19:06;;;;;;;12.28;7.60;;;;;;;6.02;72.68;99358.77;4323662;81;21162;-83
2021/05/08 05:25:09;;;;;;;13.70;7.17;;;;;;;6.15;72.50;99365.03;4323680;81;21210;-84
2021/05/08 05:31:12;;;;;;;11.48;5.87;;;;;;;6.33;72.46;99374.56;4312502;82;21290;-83
2021/05/08 05:37:13;;;;;;;12.40;6.33;;;;;;;6.59;72.36;99379.70;4320616;80;21185;-84
2021/05/08 05:43:15;;;;;;;11.73;5.78;;;;;;;6.60;72.09;99387.52;4319816;82;21147;-86
2021/05/08 05:49:17;;;;;;;8.55;5.65;;;;;;;6.73;72.05;99395.93;4332254;81;21734;-83
2021/05/08 05:55:18;;;;;;;12.13;5.45;;;;;;;6.98;71.63;99399.44;4318166;82;21324;-84
2021/05/08 06:01:21;;;;;;;10.50;4.33;;;;;;;7.31;71.44;99395.99;4318985;80;21297;-84
2021/05/08 06:07:23;;;;;;;9.25;4.58;;;;;;;7.53;70.59;99393.53;4321269;81;21123;-84
2021/05/08 06:13:24;;;;;;;5.58;3.87;;;;;;;7.52;70.44;99396.61;4303935;82;21384;-84
2021/05/08 06:19:26;;;;;;;8.15;4.53;;;;;;;7.81;70.64;99397.66;4304964;81;21146;-84
2021/05/08 06:25:27;;;;;;;9.28;3.85;;;;;;;8.14;69.70;99397.40;4295477;81;21340;-84
2021/05/08 06:31:29;;;;;;;7.70;3.67;;;;;;;8.56;69.83;99395.80;4302204;82;21584;-84
2021/05/08 06:37:32;;;;;;;6.53;4.15;;;;;;;8.67;69.10;99391.41;4298288;81;21524;-84
2021/05/08 06:43:33;;;;;;;5.65;3.90;;;;;;;8.45;67.92;99398.27;4305615;83;21151;-84
2021/05/08 06:49:35;;;;;;;8.00;4.58;;;;;;;8.62;69.02;99401.22;4307703;82;21142;-84
2021/05/08 06:55:36;;;;;;;8.45;3.70;;;;;;;8.87;68.31;99404.78;4308706;82;21718;-85
2021/05/08 07:01:38;;;;;;;7.08;3.58;;;;;;;9.03;67.74;99404.77;4309869;82;21304;-85
2021/05/08 07:07:40;;;;;;;6.08;3.27;;;;;;;9.10;67.29;99402.19;4303567;81;21202;-85
2021/05/08 07:13:41;;;;;;;5.15;2.40;;;;;;;9.14;66.93;99415.37;4347420;81;21523;-85
2021/05/08 07:19:43;;;;;;;7.47;3.50;;;;;;;8.99;66.69;99417.56;4337654;81;21236;-83
2021/05/08 07:25:45;;;;;;;6.10;3.02;;;;;;;8.98;66.52;99409.93;4207577;83;21617;-83
2021/05/08 07:31:47;;;;;;;5.20;3.27;;;;;;;9.90;66.35;99408.63;4242784;82;21189;-85
2021/05/08 07:37:50;;;;;;;4.62;2.90;;;;;;;10.48;65.28;99403.34;4184019;83;21201;-83
2021/05/08 07:43:51;;;;;;;3.83;2.37;;;;;;;11.33;64.18;99406.07;4169998;84;21184;-83
2021/05/08 07:49:53;;;;;;;4.55;2.35;;;;;;;12.12;63.44;99404.80;4187525;84;21198;-83
2021/05/08 07:55:54;;;;;;;6.55;2.50;;;;;;;12.90;62.00;99400.28;4185892;83;21631;-83
2021/05/08 08:01:57;;;;;;;5.47;2.37;;;;;;;13.19;61.20;99405.41;4189304;84;21195;-83
2021/05/08 08:08:02;;;;;;;4.47;2.08;;;;;;;12.36;59.85;99398.20;4246380;83;21196;-83
2021/05/08 08:14:04;;;;;;;6.62;2.25;;;;;;;11.52;60.30;99417.72;4243556;83;21510;-83
2021/05/08 08:20:10;;;;;;;3.98;2.47;;;;;;;10.98;59.57;99424.13;4242949;83;21552;-83
2021/05/08 08:26:12;;;;;;;4.27;2.50;;;;;;;11.47;59.34;99418.61;4241784;83;21202;-83
2021/05/08 08:32:14;;;;;;;4.12;2.45;;;;;;;11.82;59.13;99421.30;4247326;83;21303;-83
2021/05/08 08:38:15;;;;;;;3.62;2.17;;;;;;;12.46;58.24;99419.50;4249215;83;21556;-83
2021/05/08 08:44:17;;;;;;;4.00;1.57;;;;;;;11.93;55.91;99425.54;4243745;82;21339;-84
2021/05/08 08:50:19;;;;;;;8.03;2.17;;;;;;;11.41;56.70;99429.12;4249366;83;21699;-83
2021/05/08 08:56:23;;;;;;;4.78;2.27;;;;;;;11.66;56.76;99413.03;4190724;84;22298;-83
2021/05/08 09:02:28;;;;;;;3.62;2.10;;;;;;;12.20;56.18;99415.47;4188288;84;21591;-83
2021/05/08 09:08:31;;;;;;;4.60;2.00;;;;;;;12.41;54.35;99429.44;4186667;83;21352;-83
2021/05/08 09:14:34;;;;;;;4.00;1.70;;;;;;;13.13;53.52;99428.94;4346814;81;21762;-82
2021/05/08 09:20:47;;;;;;;3.50;2.00;;;;;;;12.88;53.12;99427.33;4348829;81;21158;-82
2021/05/08 09:26:52;;;;;;;4.87;2.00;;;;;;;12.35;53.44;99446.62;4351779;81;21600;-82
2021/05/08 09:33:00;;;;;;;3.98;2.02;;;;;;;11.55;53.47;99453.99;4204473;84;21189;-82
2021/05/08 09:39:03;;;;;;;3.42;1.90;;;;;;;11.38;53.81;99465.49;4204957;83;21166;-82
2021/05/08 09:45:05;;;;;;;5.92;2.77;;;;;;;11.68;53.80;99461.45;4205278;84;21189;-83
2021/05/08 09:51:25;;;;;;;6.10;2.92;;;;;;;11.93;53.10;99437.28;4197514;84;21187;-82
2021/05/08 09:57:27;;;;;;;3.52;2.33;;;;;;;12.17;53.79;99430.52;4232955;82;21226;-83
2021/05/08 10:03:34;;;;;;;3.47;2.30;;;;;;;13.88;52.17;99427.63;4196743;84;21166;-82
2021/05/08 10:09:37;;;;;;;;;;;;;;;14.90;51.67;99415.53;4213543;83;21291;-83
2021/05/08 10:15:41;;;;;;;6.15;2.08;;;;;;;14.57;49.99;99435.17;4205075;84;20476;-83
2021/05/08 10:21:43;;;;;;;2.70;2.08;;;;;;;14.94;50.69;99422.63;4207372;84;21289;-83
2021/05/08 10:27:46;;;;;;;3.70;2.00;;;;;;;16.25;50.10;99417.63;4207316;84;21623;-83
2021/05/08 10:33:48;;;;;;;4.20;2.15;;;;;;;16.35;49.18;99420.95;4203068;84;21320;-83
2021/05/08 10:39:58;;;;;;;4.28;2.30;;;;;;;16.08;48.44;99428.97;4202709;84;21364;-83
2021/05/08 10:46:00;;;;;;;3.65;2.20;;;;;;;16.08;46.35;99419.30;4238250;82;21623;-83
2021/05/08 10:52:02;;;;;;;4.83;2.12;;;;;;;16.93;46.95;99398.84;4351407;81;21159;-83
2021/05/08 10:58:21;;;;;;;4.53;2.52;;;;;;;15.91;41.03;99413.23;4348303;80;22145;-83
2021/05/08 11:04:23;;;;;;;3.47;2.62;;;;;;;15.34;44.98;99421.44;4355796;81;21350;-83
2021/05/08 11:10:37;;;;;;;6.35;2.35;;;;;;;15.77;44.63;99413.89;4351068;81;21208;-82
2021/05/08 11:16:57;;;;;;;4.70;2.60;;;;;;;16.97;43.13;99412.06;4208191;82;21729;-83
2021/05/08 11:22:58;;;;;;;4.83;2.58;;;;;;;15.79;43.68;99421.95;4212172;83;21200;-83
2021/05/08 11:29:27;;;;;;;4.47;2.50;;;;;;;15.59;43.60;99414.73;4212522;84;21177;-83
2021/05/08 11:35:29;;;;;;;5.65;2.98;;;;;;;16.46;42.94;99412.80;4217043;84;21329;-83
2021/05/08 11:41:31;;;;;;;6.15;2.22;;;;;;;16.70;42.25;99417.39;4198149;84;21611;-82
2021/05/08 11:54:09;;;;;;;3.87;2.25;;;;;;;17.29;41.02;99406.27;4581617;76;22952;-81
2021/05/08 12:00:18;;;;;;;4.03;2.30;;;;;;;16.14;41.92;99413.55;4488961;77;21152;-81
2021/05/08 12:06:19;;;;;;;3.85;2.12;;;;;;;16.75;41.12;99408.68;4500368;77;22202;-81
2021/05/08 12:12:21;;;;;;;3.52;1.62;;;;;;;16.54;40.44;99408.81;4499433;77;21150;-82
2021/05/08 12:18:23;;;;;;;2.50;1.65;;;;;;;17.13;38.95;99397.13;4498788;77;21116;-81
2021/05/08 12:24:33;;;;;;;3.17;1.90;;;;;;;17.30;38.73;99389.25;4470285;78;23425;-81
2021/05/08 12:30:51;;;;;;;5.10;2.08;;;;;;;17.68;38.00;99377.61;4588322;75;22861;-83
2021/05/08 12:37:08;;;;;;;3.05;1.87;;;;;;;17.90;38.79;99374.16;4445108;79;23393;-81
2021/05/08 12:43:31;;;;;;;4.08;2.05;;;;;;;17.92;36.67;99372.36;4446376;79;22907;-82
2021/05/08 12:50:10;;;;;;;3.83;1.98;;;;;;;17.67;36.85;99360.20;4459533;79;22739;-82
2021/05/08 12:56:26;;;;;;;4.30;2.35;;;;;;;16.92;36.69;99364.10;4424020;78;22982;-83
2021/05/08 13:02:47;;;;;;;4.33;2.27;;;;;;;16.04;36.77;99366.63;4392624;78;28275;-84
2021/05/08 13:09:03;;;;;;;2.25;1.77;;;;;;;16.17;35.31;99363.61;4592586;76;23058;-84
2021/05/08 13:15:20;;;;;;;3.90;1.67;;;;;;;15.57;36.71;99366.63;4396749;79;22647;-81
2021/05/08 13:21:32;;;;;;;4.28;1.75;;;;;;;15.39;36.84;99365.90;4576805;75;23133;-84
2021/05/08 13:27:47;;;;;;;3.33;2.00;;;;;;;15.10;36.39;99362.36;4402008;78;28347;-84
2021/05/08 13:34:04;;;;;;;4.70;1.62;;;;;;;15.43;35.49;99357.01;4585135;75;22923;-84
2021/05/08 13:40:17;;;;;;;3.83;1.50;;;;;;;15.83;35.71;99352.35;4504049;78;20427;-83
2021/05/08 13:46:28;;;;;;;3.95;1.70;;;;;;;16.78;35.75;99360.07;4583853;76;23339;-81
2021/05/08 13:52:40;;;;;;;3.62;2.22;;;;;;;16.96;32.53;99354.58;4467734;75;28545;-82
2021/05/08 13:58:51;;;;;;;4.58;2.95;;;;;;;16.83;33.23;99355.49;4542194;75;28088;-84
2021/05/08 14:05:01;;;;;;;2.85;1.67;;;;;;;17.39;33.42;99347.25;4502129;76;23077;-84
2021/05/08 14:11:13;;;;;;;2.17;1.30;;;;;;;17.59;33.72;99354.56;4445772;79;23350;-83
2021/05/08 14:17:30;;;;;;;3.30;1.72;;;;;;;17.85;33.66;99350.31;4584364;75;22921;-84
2021/05/08 14:23:40;;;;;;;4.15;1.70;;;;;;;17.72;33.06;99353.43;4533835;77;22920;-82
2021/05/08 14:29:51;;;;;;;2.98;1.85;;;;;;;17.51;32.49;99343.38;4446083;79;22657;-84
2021/05/08 14:36:01;;;;;;;3.33;1.70;;;;;;;17.13;32.40;99351.48;4591542;76;22838;-82
2021/05/08 14:42:23;;;;;;;2.80;1.70;;;;;;;17.10;32.66;99334.32;4588223;76;22705;-87
2021/05/08 14:48:33;;;;;;;3.95;2.00;;;;;;;17.09;32.10;99345.17;4567104;76;28823;-85
2021/05/08 14:54:47;;;;;;;2.30;1.40;;;;;;;17.34;31.15;99340.18;4592191;77;22891;-88
2021/05/08 15:00:58;;;;;;;2.30;1.60;;;;;;;17.42;31.94;99345.03;4623027;76;22911;-87
2021/05/08 15:07:13;;;;;;;3.58;1.60;;;;;;;17.02;31.72;99350.79;4622634;76;22665;-85
2021/05/08 15:13:32;;;;;;;4.45;1.50;;;;;;;16.61;32.51;99344.41;4621920;76;22914;-87
2021/05/08 15:19:50;;;;;;;2.75;1.67;;;;;;;16.41;32.69;99353.78;4429004;79;23801;-88
2021/05/08 15:26:13;;;;;;;5.17;2.02;;;;;;;16.33;32.23;99354.25;4622921;76;22928;-87
2021/05/08 15:32:27;;;;;;;3.30;1.90;;;;;;;16.00;32.82;99345.16;4558207;77;22903;-84
2021/05/08 15:38:42;;;;;;;4.37;2.55;;;;;;;15.40;31.97;99344.81;4589735;77;22915;-88
2021/05/08 15:44:57;;;;;;;4.28;2.40;;;;;;;15.06;33.66;99347.02;4591531;75;22895;-86
2021/05/08 15:51:12;;;;;;;5.15;2.05;;;;;;;14.95;32.85;99346.23;4516523;77;22956;-87
2021/05/08 15:57:24;;;;;;;5.20;2.37;;;;;;;14.92;33.20;99344.27;4564174;76;28014;-84
2021/05/08 16:03:35;;;;;;;3.58;2.25;;;;;;;15.14;32.67;99341.08;4609128;76;22506;-85
2021/05/08 16:09:48;;;;;;;5.30;2.25;;;;;;;14.80;32.81;99341.31;4514317;79;23389;-86
2021/05/08 16:15:58;;;;;;;6.40;2.50;;;;;;;14.19;34.22;99338.87;4624588;76;22917;-86
2021/05/08 16:22:13;;;;;;;4.92;2.12;;;;;;;13.82;34.52;99345.26;4399382;79;22934;-86
2021/05/08 16:28:25;;;;;;;6.17;3.05;;;;;;;13.76;34.60;99344.86;4542496;76;22914;-86
2021/05/08 16:34:35;;;;;;;6.20;3.55;;;;;;;13.71;36.19;99343.85;4602228;76;22930;-87
2021/05/08 16:40:48;;;;;;;4.83;3.17;;;;;;;13.57;35.06;99341.62;4511300;78;28585;-87
2021/05/08 16:47:05;;;;;;;5.95;2.60;;;;;;;13.69;35.60;99346.77;4613725;77;23126;-85
2021/05/08 16:53:15;;;;;;;8.80;2.83;;;;;;;13.49;36.21;99341.38;4387333;79;23440;-88
2021/05/08 16:59:26;;;;;;;5.97;2.65;;;;;;;13.13;37.55;99347.27;4391540;79;22993;-88
2021/05/08 17:05:43;;;;;;;4.60;2.67;;;;;;;12.98;37.60;99348.91;4586817;76;22895;-89
2021/05/08 17:11:59;;;;;;;4.75;2.95;;;;;;;12.82;38.15;99348.38;4433416;79;22750;-87
2021/05/08 17:18:09;;;;;;;6.20;3.85;;;;;;;12.48;39.18;99350.47;4515719;77;22896;-86
2021/05/08 17:24:23;;;;;;;6.67;3.30;;;;;;;12.22;39.00;99345.91;4587307;76;22706;-88
2021/05/08 17:30:36;;;;;;;6.50;3.70;;;;;;;12.10;39.81;99354.98;4396028;79;28278;-87
2021/05/08 17:36:50;;;;;;;6.45;3.22;;;;;;;12.13;40.91;99352.28;4582163;76;22761;-88
2021/05/08 17:43:07;;;;;;;7.00;3.92;;;;;;;11.84;40.97;99355.86;4600845;76;22919;-88
2021/05/08 17:49:19;;;;;;;6.55;3.55;;;;;;;11.60;40.75;99355.54;4597941;76;22905;-88
2021/05/08 17:55:29;;;;;;;10.58;5.92;;;;;;;11.36;40.67;99355.99;4383149;79;28790;-89
2021/05/08 18:01:42;;;;;;;12.63;7.03;;;;;;;11.42;40.28;99362.16;4396767;78;28312;-88
2021/05/08 18:07:59;;;;;;;14.10;7.72;;;;;;;11.46;40.97;99360.84;4528698;78;22773;-89
2021/05/08 18:14:09;;;;;;;13.15;7.35;;;;;;;10.80;41.02;99368.28;4520050;77;22979;-89
2021/05/08 18:20:20;;;;;;;15.33;9.10;;;;;;;10.33;41.36;99368.67;4544287;76;28127;-88
2021/05/08 18:26:33;;;;;;;25.85;11.63;;;;;;;10.17;42.97;99372.08;4579760;76;23377;-87
2021/05/08 18:32:50;;;;;;;31.82;14.35;;;;;;;9.62;43.42;99388.11;4555336;77;23056;-89
2021/05/08 18:39:03;;;;;;;86.50;39.92;;;;;;;9.14;44.13;99401.15;4440231;80;22280;-88
2021/05/08 18:45:14;;;;;;;87.15;49.88;;;;;;;8.80;45.00;99394.27;4388640;80;28405;-88
2021/05/08 18:51:25;;;;;;;70.22;43.40;;;;;;;8.78;46.58;99397.36;4390982;80;28262;-87
2021/05/08 18:57:41;;;;;;;75.40;39.83;;;;;;;8.68;47.47;99399.80;4467400;77;23391;-87
2021/05/08 19:03:53;;;;;;;77.08;38.75;;;;;;;8.22;47.42;99405.99;4507347;77;22885;-88
2021/05/08 19:10:05;;;;;;;56.28;29.63;;;;;;;7.86;47.92;99407.73;4592554;76;22662;-88
2021/05/08 19:16:17;;;;;;;40.00;22.40;;;;;;;7.48;48.50;99410.70;4592811;76;22835;-86
2021/05/08 19:22:28;;;;;;;37.20;24.05;;;;;;;7.19;49.42;99406.88;4543278;76;28127;-87
2021/05/08 19:28:40;;;;;;;49.13;26.80;;;;;;;7.16;51.34;99417.10;4436980;78;22299;-87
2021/05/08 19:34:57;;;;;;;72.58;40.40;;;;;;;6.85;50.79;99410.89;4527803;77;23008;-87
2021/05/08 19:41:08;;;;;;;52.80;32.48;;;;;;;6.67;50.99;99419.02;4583334;76;23202;-86
2021/05/08 19:47:33;;;;;;;117.93;67.22;;;;;;;6.54;53.94;99414.72;4595161;76;23377;-88
2021/05/08 19:53:43;;;;;;;126.90;71.07;;;;;;;6.33;54.30;99427.03;4580783;76;22920;-87
2021/05/08 20:00:00;;;;;;;116.62;64.00;;;;;;;6.26;54.40;99419.20;4530937;77;22946;-88
2021/05/08 20:06:11;;;;;;;82.30;55.17;;;;;;;5.92;53.97;99432.55;4545377;75;28145;-87
2021/05/08 20:12:27;;;;;;;69.07;39.90;;;;;;;5.89;55.25;99431.86;4586969;76;23370;-87
2021/05/08 20:18:45;;;;;;;73.17;40.08;;;;;;;5.87;56.77;99438.18;4525683;77;22975;-87
2021/05/08 20:25:05;;;;;;;68.20;35.78;;;;;;;5.81;56.62;99434.64;4528936;77;22946;-87
2021/05/08 20:31:15;;;;;;;68.05;37.98;;;;;;;5.57;57.33;99435.86;4534255;77;22902;-87
2021/05/08 20:37:27;;;;;;;61.97;36.90;;;;;;;5.31;56.91;99431.19;4412158;79;28749;-87
2021/05/08 20:43:38;;;;;;;68.65;36.05;;;;;;;5.37;57.44;99426.56;4589241;76;22825;-87
2021/05/08 20:49:49;;;;;;;72.22;34.55;;;;;;;5.15;57.78;99430.97;4444144;79;22930;-86
2021/05/08 20:56:02;;;;;;;64.58;37.13;;;;;;;5.13;58.37;99433.20;4395218;79;29103;-85
2021/05/08 21:02:18;;;;;;;65.15;34.20;;;;;;;5.24;59.29;99434.97;4588582;76;22936;-86
2021/05/08 21:08:30;;;;;;;75.73;41.53;;;;;;;5.04;59.26;99439.25;4473736;78;28087;-85
2021/05/08 21:14:41;;;;;;;63.68;36.08;;;;;;;5.06;60.21;99432.91;4543072;76;28071;-85
2021/05/08 21:20:52;;;;;;;61.80;35.10;;;;;;;5.14;60.77;99425.28;4559319;76;28036;-85
2021/05/08 21:27:04;;;;;;;57.33;30.90;;;;;;;5.18;61.24;99424.08;4443234;79;22805;-85
2021/05/08 21:33:15;;;;;;;61.73;36.48;;;;;;;5.05;61.61;99432.69;4404710;78;28249;-85
2021/05/08 21:39:25;;;;;;;65.90;35.73;;;;;;;4.88;61.37;99435.49;4590046;75;22777;-85
2021/05/08 21:45:36;;;;;;;58.52;35.13;;;;;;;4.50;62.01;99431.42;4359134;79;28149;-85
2021/05/08 21:51:47;;;;;;;60.95;36.03;;;;;;;4.64;62.37;99442.85;4541994;76;28946;-86
2021/05/08 21:57:58;;;;;;;64.12;33.95;;;;;;;4.76;63.06;99434.82;4440043;79;22721;-87
2021/05/08 22:04:10;;;;;;;73.12;38.23;;;;;;;4.35;62.82;99436.00;4507222;78;22225;-86
2021/05/08 22:10:21;;;;;;;75.52;41.90;;;;;;;3.90;62.93;99429.97;4449836;77;28180;-87
2021/05/08 22:16:38;;;;;;;77.82;37.48;;;;;;;3.87;64.08;99433.33;4573212;76;22808;-86
2021/05/08 22:22:50;;;;;;;68.35;37.85;;;;;;;3.74;64.62;99439.69;4544876;76;28149;-87
2021/05/08 22:29:01;;;;;;;65.90;34.95;;;;;;;4.06;64.97;99444.04;4449354;79;22950;-87
2021/05/08 22:35:14;;;;;;;79.17;40.83;;;;;;;3.76;65.53;99443.66;4586735;76;22896;-87
2021/05/08 22:41:25;;;;;;;72.30;43.13;;;;;;;3.53;65.28;99444.14;4404303;78;28171;-86
2021/05/08 22:47:36;;;;;;;71.85;37.03;;;;;;;3.72;65.74;99446.78;4442596;79;22794;-85
2021/05/08 22:53:48;;;;;;;71.67;39.78;;;;;;;3.51;65.51;99448.52;4547345;75;28139;-86
2021/05/08 23:00:01;;;;;;;73.85;37.88;;;;;;;3.48;66.25;99453.21;4495538;77;22719;-88
2021/05/08 23:06:12;;;;;;;74.53;36.88;;;;;;;3.15;66.41;99439.32;4587710;76;22879;-87
2021/05/08 23:12:22;;;;;;;70.72;35.30;;;;;;;2.89;67.02;99439.02;4579579;76;22513;-86
2021/05/08 23:18:34;;;;;;;70.40;42.53;;;;;;;2.71;67.33;99438.16;4447171;79;28606;-86
2021/05/08 23:24:45;;;;;;;64.45;37.90;;;;;;;2.79;67.66;99433.88;4538639;76;28480;-86
2021/05/08 23:30:55;;;;;;;69.03;34.45;;;;;;;2.95;68.01;99442.62;4597277;76;22917;-87
2021/05/08 23:37:06;;;;;;;56.23;29.85;;;;;;;2.65;68.22;99437.25;4587553;76;24175;-87
2021/05/08 23:43:19;;;;;;;60.27;34.73;;;;;;;2.60;69.21;99442.81;4465224;78;28125;-86
2021/05/08 23:49:30;;;;;;;49.93;28.57;;;;;;;2.77;68.45;99447.71;4584706;76;22797;-86
2021/05/08 23:55:40;;;;;;;61.45;30.45;;;;;;;2.70;69.64;99450.63;4580692;76;22895;-86
